Time;durP1;ratioP1;P1;durP2;ratioP2;P2;SDS_P1;SDS_P2;PMS_P1;PMS_P2;Temp;Humidity;BMP_temperature;BMP_pressure;BME280_temperature;BME280_humidity;BME280_pressure;Samples;Min_cycle;Max_cycle;Signal;HPM_P1;HPM_P2
2023/08/27 00:02:00;;;;;;;9.32;6.72;;;13.50;99.90;;;;;;5079347;28;20048;-88
2023/08/27 00:04:27;;;;;;;9.13;6.57;;;13.50;99.90;;;;;;5062620;28;20507;-88
2023/08/27 00:06:53;;;;;;;10.50;6.93;;;13.50;99.90;;;;;;5062125;28;20087;-87
2023/08/27 00:09:20;;;;;;;8.95;6.60;;;13.50;99.90;;;;;;5062458;28;20040;-88
2023/08/27 00:11:47;;;;;;;9.48;6.60;;;13.60;99.90;;;;;;5061895;28;20047;-88
2023/08/27 00:14:13;;;;;;;8.75;6.57;;;13.60;99.90;;;;;;5078693;28;20131;-87
2023/08/27 00:16:40;;;;;;;9.23;6.22;;;13.50;99.90;;;;;;5061558;28;20040;-88
2023/08/27 00:19:07;;;;;;;9.80;6.63;;;13.50;99.90;;;;;;5061924;28;20040;-88
2023/08/27 00:21:33;;;;;;;11.15;7.03;;;13.50;99.90;;;;;;5061937;28;20040;-87
2023/08/27 00:24:00;;;;;;;14.20;7.28;;;13.50;99.90;;;;;;5062264;28;20487;-88
2023/08/27 00:26:27;;;;;;;8.57;6.50;;;13.40;99.90;;;;;;5062453;28;20484;-88
2023/08/27 00:28:55;;;;;;;11.05;6.32;;;13.50;99.90;;;;;;5061825;28;20118;-88
2023/08/27 00:31:22;;;;;;;9.43;6.55;;;13.40;99.90;;;;;;5095168;28;20409;-87
2023/08/27 00:33:49;;;;;;;7.85;6.18;;;13.40;99.90;;;;;;5061536;28;20039;-87
2023/08/27 00:36:16;;;;;;;9.45;7.05;;;13.40;99.90;;;;;;5078038;28;20522;-88
2023/08/27 00:38:42;;;;;;;9.55;6.60;;;13.40;99.90;;;;;;5061452;28;20131;-88
2023/08/27 00:41:09;;;;;;;9.05;6.70;;;13.30;99.90;;;;;;5061570;28;20051;-87
2023/08/27 00:43:36;;;;;;;9.57;6.60;;;13.40;99.90;;;;;;5078040;28;20741;-87
2023/08/27 00:46:05;;;;;;;10.98;7.00;;;13.30;99.90;;;;;;5078280;28;20036;-87
2023/08/27 00:48:32;;;;;;;10.15;6.28;;;13.30;99.90;;;;;;5078068;28;20523;-88
2023/08/27 00:51:00;;;;;;;8.93;7.07;;;13.30;99.90;;;;;;5077835;28;20036;-88
2023/08/27 00:53:27;;;;;;;9.95;7.28;;;13.30;99.90;;;;;;5078353;28;20052;-88
2023/08/27 00:55:53;;;;;;;9.70;6.93;;;13.30;99.90;;;;;;5061441;28;20051;-88
2023/08/27 00:58:20;;;;;;;16.13;7.40;;;13.30;99.90;;;;;;5061854;28;20044;-88
2023/08/27 01:00:48;;;;;;;11.40;7.30;;;13.30;99.90;;;;;;5057467;28;20455;-88
2023/08/27 01:03:15;;;;;;;9.80;6.75;;;13.30;99.90;;;;;;5074863;28;20045;-88
2023/08/27 01:05:41;;;;;;;9.77;6.72;;;13.30;99.90;;;;;;5057481;28;20043;-88
2023/08/27 01:08:38;;;;;;;11.70;7.35;;;13.40;99.90;;;;;;5057770;28;20074;-88
2023/08/27 01:11:04;;;;;;;;;;;13.40;99.90;;;;;;5107960;28;20497;-88
2023/08/27 01:13:43;;;;;;;9.05;6.82;;;13.30;99.90;;;;;;5090912;28;19924;-88
2023/08/27 01:16:12;;;;;;;8.45;6.82;;;13.30;99.90;;;;;;5090726;28;20033;-88
2023/08/27 01:18:39;;;;;;;8.48;6.38;;;13.20;99.90;;;;;;5073927;28;20047;-87
2023/08/27 01:21:25;;;;;;;8.90;6.22;;;13.20;99.90;;;;;;5090748;28;20043;-88
2023/08/27 01:23:52;;;;;;;9.25;6.70;;;13.20;99.90;;;;;;5073638;28;20485;-88
2023/08/27 01:26:37;;;;;;;12.45;6.47;;;13.20;99.90;;;;;;5090560;28;20047;-87
2023/08/27 01:29:30;;;;;;;10.70;6.72;;;13.20;99.90;;;;;;5090604;28;20045;-88
2023/08/27 01:32:04;;;;;;;10.13;6.88;;;13.00;99.90;;;;;;5089948;28;20079;-88
2023/08/27 01:34:31;;;;;;;8.80;7.03;;;13.20;99.90;;;;;;5090182;28;20373;-88
2023/08/27 01:36:58;;;;;;;8.43;6.50;;;13.10;99.90;;;;;;5057228;28;20451;-88
2023/08/27 01:39:25;;;;;;;9.57;6.68;;;13.10;99.90;;;;;;5073831;28;20044;-88
2023/08/27 01:41:52;;;;;;;9.05;7.13;;;13.20;99.90;;;;;;5073600;28;20032;-87
2023/08/27 01:44:18;;;;;;;9.00;6.40;;;13.10;99.90;;;;;;5057471;28;20048;-88
2023/08/27 01:46:45;;;;;;;8.45;6.70;;;13.20;99.90;;;;;;5073416;28;20051;-87
2023/08/27 01:49:12;;;;;;;8.52;6.32;;;13.20;99.90;;;;;;5090191;28;20097;-88
2023/08/27 01:51:38;;;;;;;8.95;6.18;;;13.10;99.90;;;;;;5057024;28;20049;-88
2023/08/27 01:54:05;;;;;;;11.15;6.40;;;13.10;99.90;;;;;;5056627;28;20127;-88
2023/08/27 01:56:32;;;;;;;8.38;6.28;;;13.10;99.90;;;;;;5057218;28;20126;-88
2023/08/27 01:58:59;;;;;;;9.00;6.50;;;13.10;99.90;;;;;;5073046;28;20043;-88
2023/08/27 02:01:25;;;;;;;8.18;6.22;;;13.00;99.90;;;;;;5056683;28;20052;-88
2023/08/27 02:03:53;;;;;;;8.77;6.53;;;13.00;99.90;;;;;;5056623;28;20131;-88
2023/08/27 02:06:19;;;;;;;9.10;6.38;;;13.00;99.90;;;;;;5057207;28;20040;-88
2023/08/27 02:08:46;;;;;;;8.65;6.43;;;12.90;99.90;;;;;;5056766;28;20067;-88
2023/08/27 02:11:13;;;;;;;14.07;6.63;;;13.00;99.90;;;;;;5073525;28;20079;-88
2023/08/27 02:13:39;;;;;;;9.02;6.50;;;13.00;99.90;;;;;;5057098;28;20044;-87
2023/08/27 02:16:06;;;;;;;9.18;6.80;;;13.00;99.90;;;;;;5056693;28;20102;-88
2023/08/27 02:18:33;;;;;;;10.95;6.72;;;12.90;99.90;;;;;;5073539;28;20127;-88
2023/08/27 02:21:01;;;;;;;9.50;6.82;;;13.00;99.90;;;;;;5089860;28;20408;-88
2023/08/27 02:23:27;;;;;;;8.80;6.95;;;13.00;99.90;;;;;;5090015;28;20033;-88
2023/08/27 02:25:54;;;;;;;9.32;6.93;;;13.00;99.90;;;;;;5073275;28;20131;-88
2023/08/27 02:28:21;;;;;;;10.30;6.68;;;13.10;99.90;;;;;;5057143;28;20075;-88
2023/08/27 02:30:55;;;;;;;10.93;7.35;;;13.10;99.90;;;;;;5057059;28;20404;-88
2023/08/27 02:33:22;;;;;;;9.18;6.70;;;13.20;99.90;;;;;;5057413;28;20047;-88
2023/08/27 02:35:49;;;;;;;10.35;7.25;;;13.20;99.90;;;;;;5073148;28;20774;-88
2023/08/27 02:38:18;;;;;;;9.80;7.10;;;13.30;99.90;;;;;;5073145;28;20048;-88
2023/08/27 02:40:44;;;;;;;10.30;7.57;;;13.30;99.90;;;;;;5089714;28;20397;-88
2023/08/27 02:43:12;;;;;;;9.25;7.13;;;13.30;99.90;;;;;;5056780;28;20041;-88
2023/08/27 02:45:38;;;;;;;9.55;6.50;;;13.30;99.90;;;;;;5089602;28;20037;-88
2023/08/27 02:48:05;;;;;;;9.05;6.43;;;13.30;99.90;;;;;;5056852;28;20032;-88
2023/08/27 02:50:32;;;;;;;8.35;6.80;;;13.40;99.90;;;;;;5073221;28;20040;-88
2023/08/27 02:52:58;;;;;;;9.02;6.50;;;13.40;99.90;;;;;;5072777;28;20137;-88
2023/08/27 02:55:28;;;;;;;8.40;6.25;;;13.40;99.90;;;;;;5056221;28;20392;-88
2023/08/27 02:57:55;;;;;;;11.93;6.78;;;13.30;99.90;;;;;;5072860;28;20151;-88
2023/08/27 03:00:22;;;;;;;10.10;7.10;;;13.30;99.90;;;;;;5056196;28;20123;-88
2023/08/27 03:02:48;;;;;;;11.35;7.07;;;13.30;99.90;;;;;;5057075;28;20106;-88
2023/08/27 03:05:15;;;;;;;9.25;6.75;;;13.30;99.90;;;;;;5056282;28;20044;-88
2023/08/27 03:07:42;;;;;;;9.48;6.43;;;13.30;99.90;;;;;;5056770;28;20098;-88
2023/08/27 03:10:09;;;;;;;7.90;6.45;;;13.30;99.90;;;;;;5093325;28;20127;-88
2023/08/27 03:12:36;;;;;;;10.70;6.72;;;13.30;99.90;;;;;;5076876;28;20044;-87
2023/08/27 03:15:03;;;;;;;10.52;6.32;;;13.30;99.90;;;;;;5076259;28;20039;-88
2023/08/27 03:17:29;;;;;;;9.45;6.75;;;13.30;99.90;;;;;;5076371;28;20036;-88
2023/08/27 03:19:56;;;;;;;11.50;6.47;;;13.30;99.90;;;;;;5092946;28;20085;-87
2023/08/27 03:22:23;;;;;;;8.65;5.90;;;13.30;99.90;;;;;;5060191;28;20041;-88
2023/08/27 03:24:50;;;;;;;8.32;6.28;;;13.20;99.90;;;;;;5092940;28;20033;-88
2023/08/27 03:27:16;;;;;;;9.85;6.28;;;13.20;99.90;;;;;;5059696;28;20052;-88
2023/08/27 03:29:43;;;;;;;11.13;6.70;;;13.10;99.90;;;;;;5059838;28;20135;-87
2023/08/27 03:32:11;;;;;;;7.97;5.88;;;13.10;99.90;;;;;;5075728;28;20036;-88
2023/08/27 03:34:37;;;;;;;11.93;6.60;;;13.10;99.90;;;;;;5076100;28;20127;-88
2023/08/27 03:37:04;;;;;;;10.02;6.00;;;13.10;99.90;;;;;;5075510;28;20087;-88
2023/08/27 03:39:31;;;;;;;7.95;5.85;;;13.00;99.90;;;;;;5076491;28;20837;-87
2023/08/27 03:41:58;;;;;;;8.93;6.32;;;13.00;99.90;;;;;;5075735;28;20036;-87
2023/08/27 03:44:24;;;;;;;8.23;6.22;;;13.00;99.90;;;;;;5109036;28;20404;-88
2023/08/27 03:46:51;;;;;;;9.32;5.90;;;12.90;99.90;;;;;;5059529;28;20782;-88
2023/08/27 03:49:18;;;;;;;10.15;6.55;;;13.00;99.90;;;;;;5059383;28;20130;-88
2023/08/27 03:51:44;;;;;;;7.45;5.68;;;12.90;99.90;;;;;;5059665;28;20044;-88
2023/08/27 03:54:14;;;;;;;10.00;6.30;;;12.90;99.90;;;;;;5060044;28;20497;-88
2023/08/27 03:56:41;;;;;;;11.15;6.35;;;12.90;99.90;;;;;;5075502;28;20047;-88
2023/08/27 03:59:07;;;;;;;11.77;6.03;;;12.90;99.90;;;;;;5058739;28;20064;-88
2023/08/27 04:01:34;;;;;;;9.40;6.30;;;12.90;99.90;;;;;;5075765;28;20519;-88
2023/08/27 04:04:03;;;;;;;9.13;6.10;;;12.80;99.90;;;;;;5075625;28;20382;-88
2023/08/27 04:06:29;;;;;;;8.93;5.50;;;12.80;99.90;;;;;;5059850;28;20090;-88
2023/08/27 04:08:56;;;;;;;10.43;6.15;;;12.80;99.90;;;;;;5059104;28;20040;-88
2023/08/27 04:11:23;;;;;;;7.68;5.93;;;12.80;99.90;;;;;;5075302;28;20067;-88
2023/08/27 04:13:50;;;;;;;11.35;6.28;;;12.80;99.90;;;;;;5075482;28;20040;-88
2023/08/27 04:16:17;;;;;;;8.73;6.22;;;12.80;99.90;;;;;;5058717;28;20044;-89
2023/08/27 04:18:43;;;;;;;11.07;6.13;;;12.90;99.90;;;;;;5058806;28;20078;-88
2023/08/27 04:21:10;;;;;;;11.13;6.20;;;12.90;99.90;;;;;;5074225;28;20123;-88
2023/08/27 04:23:39;;;;;;;10.88;6.80;;;12.90;99.90;;;;;;5075087;28;20044;-88
2023/08/27 04:26:06;;;;;;;10.98;6.65;;;12.90;99.90;;;;;;5058636;28;20040;-88
2023/08/27 04:28:33;;;;;;;9.55;5.82;;;12.90;99.90;;;;;;5075195;28;20097;-88
2023/08/27 04:30:59;;;;;;;8.85;6.78;;;12.90;99.90;;;;;;5074882;28;20116;-88
2023/08/27 04:33:27;;;;;;;10.02;6.25;;;12.90;99.90;;;;;;5074658;28;20055;-88
2023/08/27 04:35:54;;;;;;;12.35;7.00;;;13.00;99.90;;;;;;5075176;28;20059;-88
2023/08/27 04:38:21;;;;;;;8.63;6.70;;;12.90;99.90;;;;;;5074472;28;20036;-88
2023/08/27 04:40:52;;;;;;;9.10;6.30;;;12.90;99.90;;;;;;5091577;28;20037;-88
2023/08/27 04:43:19;;;;;;;10.27;5.97;;;13.00;99.90;;;;;;5058340;28;20610;-88
2023/08/27 04:45:46;;;;;;;8.55;6.07;;;13.00;99.90;;;;;;5074930;28;20044;-88
2023/08/27 04:48:12;;;;;;;8.73;6.60;;;13.00;99.90;;;;;;5058071;28;20043;-87
2023/08/27 04:50:43;;;;;;;8.75;6.15;;;12.90;99.90;;;;;;5075174;28;20047;-86
2023/08/27 04:53:10;;;;;;;10.73;5.78;;;13.00;99.90;;;;;;5074329;28;20040;-86
2023/08/27 04:55:37;;;;;;;7.90;6.22;;;12.90;99.90;;;;;;5058136;28;20090;-87
2023/08/27 04:58:04;;;;;;;10.18;6.38;;;12.90;99.90;;;;;;5074773;28;20468;-86
2023/08/27 05:00:31;;;;;;;12.30;6.75;;;12.90;99.90;;;;;;5073863;28;20053;-86
2023/08/27 05:02:58;;;;;;;7.93;6.03;;;13.00;99.90;;;;;;5091239;28;20501;-86
2023/08/27 05:05:25;;;;;;;8.82;6.30;;;13.00;99.90;;;;;;5057865;28;20040;-87
2023/08/27 05:07:52;;;;;;;10.65;6.57;;;13.10;99.90;;;;;;5074831;28;20079;-86
2023/08/27 05:10:18;;;;;;;8.52;6.22;;;13.10;99.90;;;;;;5057711;28;20036;-86
2023/08/27 05:12:45;;;;;;;11.05;6.57;;;13.10;99.90;;;;;;5057936;28;20032;-87
2023/08/27 05:15:12;;;;;;;9.23;6.47;;;13.20;99.90;;;;;;5057353;28;20439;-86
2023/08/27 05:17:38;;;;;;;9.73;6.63;;;13.20;99.90;;;;;;5074157;28;20044;-86
2023/08/27 05:20:07;;;;;;;9.52;6.70;;;13.30;99.90;;;;;;5074201;28;20519;-87
2023/08/27 05:22:33;;;;;;;9.00;6.53;;;13.30;99.90;;;;;;5073820;28;20040;-86
2023/08/27 05:25:00;;;;;;;9.05;6.70;;;13.30;99.90;;;;;;5057412;28;20131;-86
2023/08/27 05:27:27;;;;;;;9.65;6.10;;;13.30;99.90;;;;;;5057379;28;20051;-87
2023/08/27 05:29:53;;;;;;;9.48;6.38;;;13.30;99.90;;;;;;5057663;28;20114;-86
2023/08/27 05:32:24;;;;;;;8.25;6.03;;;13.40;99.90;;;;;;5056345;28;20041;-87
2023/08/27 05:34:52;;;;;;;9.70;5.95;;;13.40;99.90;;;;;;5074217;28;20564;-87
2023/08/27 05:37:19;;;;;;;9.18;5.78;;;13.40;99.90;;;;;;5073873;28;20047;-86
2023/08/27 05:39:46;;;;;;;8.93;5.82;;;13.50;99.90;;;;;;5074105;28;20036;-87
2023/08/27 05:42:12;;;;;;;10.93;5.82;;;13.50;99.90;;;;;;5073633;28;20044;-86
2023/08/27 05:44:39;;;;;;;8.25;5.78;;;13.50;99.90;;;;;;5056833;28;20044;-87
2023/08/27 05:47:06;;;;;;;9.95;5.95;;;13.60;99.90;;;;;;5057316;28;20048;-86
2023/08/27 05:49:32;;;;;;;7.00;5.32;;;13.60;99.90;;;;;;5057019;28;20048;-86
2023/08/27 05:51:59;;;;;;;10.43;5.95;;;13.60;99.90;;;;;;5073561;28;20040;-86
2023/08/27 05:54:26;;;;;;;10.30;6.13;;;13.70;99.90;;;;;;5056908;28;20055;-87
2023/08/27 05:56:52;;;;;;;7.75;5.45;;;13.70;99.90;;;;;;5057662;28;20040;-86
2023/08/27 05:59:19;;;;;;;8.27;5.55;;;13.70;99.90;;;;;;5057309;28;20182;-86
2023/08/27 06:01:46;;;;;;;8.63;5.68;;;13.80;99.90;;;;;;5057156;28;20063;-87
2023/08/27 06:04:13;;;;;;;7.88;5.63;;;13.80;99.90;;;;;;5057618;28;20045;-87
2023/08/27 06:06:41;;;;;;;9.68;5.80;;;13.80;99.90;;;;;;5056939;28;20037;-87
2023/08/27 06:09:07;;;;;;;8.57;5.78;;;13.90;99.90;;;;;;5057470;28;20146;-87
2023/08/27 06:11:34;;;;;;;7.72;5.85;;;13.80;99.90;;;;;;5073669;28;20393;-86
2023/08/27 06:14:01;;;;;;;9.20;5.80;;;13.80;99.90;;;;;;5057232;28;20036;-87
2023/08/27 06:16:28;;;;;;;8.13;5.80;;;13.80;99.90;;;;;;5056495;28;20082;-87
2023/08/27 06:18:54;;;;;;;11.45;6.20;;;13.90;99.90;;;;;;5057004;28;20048;-87
2023/08/27 06:21:22;;;;;;;8.73;6.10;;;13.90;99.90;;;;;;5056540;28;20106;-85
2023/08/27 06:23:49;;;;;;;9.70;6.32;;;14.00;99.90;;;;;;5073495;28;20040;-87
2023/08/27 06:26:16;;;;;;;9.70;6.13;;;14.10;99.90;;;;;;5056662;28;20044;-86
2023/08/27 06:28:43;;;;;;;12.10;6.13;;;14.10;99.90;;;;;;5056628;28;20127;-86
2023/08/27 06:31:09;;;;;;;9.30;6.10;;;14.20;99.90;;;;;;5056869;28;20036;-87
2023/08/27 06:33:38;;;;;;;11.77;6.22;;;14.40;99.90;;;;;;5072960;28;20075;-87
2023/08/27 06:36:05;;;;;;;9.10;6.20;;;14.50;99.90;;;;;;5073455;28;20158;-88
2023/08/27 06:38:32;;;;;;;8.48;5.80;;;14.50;99.90;;;;;;5073225;28;20047;-88
2023/08/27 06:40:59;;;;;;;9.63;6.22;;;14.60;99.90;;;;;;5073642;28;20037;-86
2023/08/27 06:43:26;;;;;;;8.85;5.82;;;14.70;99.90;;;;;;5074181;28;20063;-83
2023/08/27 06:45:53;;;;;;;10.27;6.07;;;14.70;99.90;;;;;;5077413;28;20036;-87
2023/08/27 06:48:19;;;;;;;9.73;6.15;;;14.70;99.90;;;;;;5094070;28;20408;-88
2023/08/27 06:50:46;;;;;;;10.57;5.85;;;14.80;99.90;;;;;;5077440;28;20048;-88
2023/08/27 06:53:13;;;;;;;9.68;5.53;;;14.80;99.90;;;;;;5077294;28;20047;-88
2023/08/27 06:55:39;;;;;;;10.63;6.20;;;14.80;99.90;;;;;;5076994;28;20411;-88
2023/08/27 06:58:06;;;;;;;9.30;5.93;;;14.80;99.90;;;;;;5077075;28;20050;-88
2023/08/27 07:00:35;;;;;;;8.07;5.68;;;14.90;99.90;;;;;;5060344;28;20041;-89
2023/08/27 07:03:02;;;;;;;9.32;5.28;;;14.70;99.90;;;;;;5094577;28;20079;-88
2023/08/27 07:05:33;;;;;;;8.45;5.47;;;14.70;99.90;;;;;;5060433;28;20066;-88
2023/08/27 07:08:04;;;;;;;7.57;5.18;;;14.60;99.90;;;;;;5061225;28;20040;-89
2023/08/27 07:10:30;;;;;;;8.18;5.18;;;14.60;99.90;;;;;;5093010;28;20090;-88
2023/08/27 07:12:57;;;;;;;7.90;5.38;;;14.60;99.90;;;;;;5076293;28;20036;-87
2023/08/27 07:15:24;;;;;;;7.05;4.97;;;14.50;99.90;;;;;;5064273;28;20516;-88
2023/08/27 07:17:50;;;;;;;10.13;5.40;;;14.50;99.90;;;;;;5060684;28;20090;-88
2023/08/27 07:20:17;;;;;;;9.73;4.82;;;14.40;99.90;;;;;;5076724;28;20493;-88
2023/08/27 07:22:44;;;;;;;11.10;5.30;;;14.40;99.90;;;;;;5076401;28;20028;-88
2023/08/27 07:25:10;;;;;;;8.90;5.25;;;14.30;99.90;;;;;;5077055;28;20185;-89
2023/08/27 07:27:37;;;;;;;7.32;5.00;;;14.30;99.90;;;;;;5076261;28;20036;-89
2023/08/27 07:30:05;;;;;;;8.43;4.28;;;14.20;99.90;;;;;;5109705;28;20183;-87
2023/08/27 07:32:31;;;;;;;8.63;4.80;;;14.20;99.90;;;;;;5076534;28;20052;-89
2023/08/27 07:34:58;;;;;;;6.40;4.05;;;14.20;99.90;;;;;;5077029;28;20029;-89
2023/08/27 07:37:25;;;;;;;7.38;4.07;;;14.20;99.90;;;;;;5076862;28;20040;-90
2023/08/27 07:39:51;;;;;;;6.32;4.10;;;14.10;99.90;;;;;;5076297;28;20040;-90
2023/08/27 07:42:18;;;;;;;6.65;3.90;;;14.10;99.90;;;;;;5076551;28;20035;-90
2023/08/27 07:44:45;;;;;;;6.63;3.80;;;14.10;99.90;;;;;;5076495;28;20044;-90
2023/08/27 07:47:12;;;;;;;5.35;3.80;;;14.10;99.90;;;;;;5093248;28;20090;-89
2023/08/27 07:49:39;;;;;;;6.82;3.97;;;14.10;99.90;;;;;;5075955;28;20040;-89
2023/08/27 07:52:05;;;;;;;8.63;3.72;;;14.10;99.90;;;;;;5076234;28;20131;-89
2023/08/27 07:54:32;;;;;;;5.72;3.38;;;14.10;99.90;;;;;;5075296;28;20029;-88
2023/08/27 07:56:58;;;;;;;5.00;3.40;;;14.10;99.90;;;;;;5076037;28;20090;-88
2023/08/27 07:59:25;;;;;;;6.70;3.45;;;14.20;99.90;;;;;;5060477;28;20132;-90
2023/08/27 08:01:52;;;;;;;9.45;3.45;;;14.20;99.90;;;;;;5059244;28;20047;-92
2023/08/27 08:04:19;;;;;;;6.15;3.47;;;14.30;99.90;;;;;;5075832;28;20083;-91
2023/08/27 08:06:45;;;;;;;5.15;3.28;;;14.40;99.90;;;;;;5075989;28;20479;-90
2023/08/27 08:09:13;;;;;;;4.68;2.70;;;14.50;99.90;;;;;;5075922;28;20125;-92
2023/08/27 08:11:40;;;;;;;7.32;2.78;;;14.50;99.90;;;;;;5076050;28;20127;-89
2023/08/27 08:14:07;;;;;;;3.90;2.38;;;14.60;99.90;;;;;;5059232;28;20235;-91
2023/08/27 08:16:33;;;;;;;4.00;2.17;;;14.80;99.90;;;;;;5125917;28;20029;-90
2023/08/27 08:19:00;;;;;;;4.20;1.92;;;14.90;99.90;;;;;;5075816;28;20070;-89
2023/08/27 08:21:27;;;;;;;3.25;1.50;;;15.00;99.90;;;;;;5073996;28;20040;-92
2023/08/27 08:23:54;;;;;;;5.25;2.00;;;15.10;99.90;;;;;;5074861;28;20040;-89
2023/08/27 08:26:21;;;;;;;2.20;1.20;;;15.30;99.90;;;;;;5117204;28;20500;-91
2023/08/27 08:28:48;;;;;;;2.95;1.40;;;15.40;99.90;;;;;;5073178;28;20041;-90
2023/08/27 08:31:14;;;;;;;2.60;1.30;;;15.50;99.90;;;;;;5075490;28;20040;-91
2023/08/27 08:33:43;;;;;;;2.90;1.40;;;15.40;99.90;;;;;;5091935;28;20094;-90
2023/08/27 08:36:10;;;;;;;1.95;1.10;;;15.60;99.90;;;;;;5075155;28;20037;-92
2023/08/27 08:38:37;;;;;;;2.15;1.02;;;15.70;99.90;;;;;;5091534;28;20731;-90
2023/08/27 08:41:06;;;;;;;2.40;1.15;;;15.80;99.90;;;;;;5076037;28;20039;-92
2023/08/27 08:43:44;;;;;;;3.17;1.00;;;15.90;99.90;;;;;;5075751;28;20044;-93
2023/08/27 08:46:15;;;;;;;2.60;1.20;;;16.00;99.90;;;;;;5075718;28;20048;-93
2023/08/27 08:48:42;;;;;;;4.63;1.20;;;16.10;99.90;;;;;;5091240;28;20044;-92
2023/08/27 08:51:11;;;;;;;2.10;0.95;;;16.20;99.90;;;;;;5075752;28;20106;-92
2023/08/27 08:53:49;;;;;;;2.28;0.90;;;16.00;99.90;;;;;;5091602;28;20044;-91
2023/08/27 08:56:31;;;;;;;1.70;0.95;;;16.20;99.90;;;;;;5091509;28;20523;-93
2023/08/27 08:58:58;;;;;;;4.97;1.27;;;16.40;99.90;;;;;;5079618;28;20042;-94
2023/08/27 09:01:28;;;;;;;3.25;1.30;;;16.50;99.90;;;;;;5093972;28;20079;-89
2023/08/27 09:03:56;;;;;;;2.22;1.13;;;16.60;99.90;;;;;;5094279;28;20134;-89
2023/08/27 09:06:26;;;;;;;3.65;1.25;;;16.60;99.90;;;;;;5094500;28;20409;-89
2023/08/27 09:08:54;;;;;;;2.58;1.23;;;16.70;99.90;;;;;;5094619;28;20055;-89
2023/08/27 09:11:22;;;;;;;2.60;1.13;;;16.80;99.90;;;;;;5078138;28;20040;-90
2023/08/27 09:13:50;;;;;;;2.80;1.20;;;16.80;99.90;;;;;;5094407;28;20040;-88
2023/08/27 09:16:16;;;;;;;2.03;1.10;;;17.00;99.90;;;;;;5094153;28;20616;-90
2023/08/27 09:18:43;;;;;;;3.65;1.17;;;17.00;99.90;;;;;;5094623;28;20044;-90
2023/08/27 09:21:11;;;;;;;1.98;1.08;;;17.10;99.90;;;;;;5110784;28;20036;-89
2023/08/27 09:23:38;;;;;;;3.95;1.20;;;17.20;99.90;;;;;;5078052;28;20079;-89
2023/08/27 09:26:08;;;;;;;3.17;1.33;;;17.50;99.90;;;;;;5094301;28;20067;-91
2023/08/27 09:28:36;;;;;;;4.88;1.40;;;17.30;99.90;;;;;;5111496;28;20047;-87
2023/08/27 09:31:04;;;;;;;2.95;1.20;;;17.40;99.90;;;;;;5061049;28;20404;-94
2023/08/27 09:33:41;;;;;;;2.28;1.20;;;17.50;99.90;;;;;;5094220;28;20059;-89
2023/08/27 09:36:09;;;;;;;1.95;1.20;;;17.50;99.90;;;;;;5092350;28;20032;-89
2023/08/27 09:38:36;;;;;;;3.10;1.35;;;17.50;99.90;;;;;;5077557;28;20044;-90
2023/08/27 09:41:15;;;;;;;3.47;1.40;;;17.70;99.90;;;;;;5094269;28;20129;-92
2023/08/27 09:43:53;;;;;;;6.28;1.30;;;17.80;99.90;;;;;;5077991;28;20040;-92
2023/08/27 09:46:21;;;;;;;4.65;1.42;;;17.90;99.90;;;;;;5094397;28;20047;-90
2023/08/27 09:48:59;;;;;;;2.50;1.30;;;17.90;99.90;;;;;;5077529;28;20120;-91
2023/08/27 09:51:28;;;;;;;3.17;1.55;;;18.00;99.90;;;;;;5093517;28;20044;-89
2023/08/27 09:53:56;;;;;;;3.15;1.42;;;18.10;99.90;;;;;;5094357;28;20057;-92
2023/08/27 09:56:27;;;;;;;4.47;1.55;;;18.20;99.90;;;;;;5077122;28;20036;-92
2023/08/27 09:59:04;;;;;;;3.95;1.42;;;18.40;99.90;;;;;;5094088;28;20048;-90
2023/08/27 10:01:35;;;;;;;3.33;1.20;;;18.50;99.90;;;;;;5090815;28;20036;-86
2023/08/27 10:04:07;;;;;;;3.30;1.33;;;18.50;99.90;;;;;;5090066;28;20465;-91
2023/08/27 10:06:35;;;;;;;2.80;1.25;;;18.70;99.90;;;;;;5090349;28;20113;-92
2023/08/27 10:09:02;;;;;;;2.58;1.20;;;18.70;99.90;;;;;;5090258;28;20504;-92
2023/08/27 10:11:31;;;;;;;4.95;2.42;;;18.80;99.90;;;;;;5081580;28;20040;-92
2023/08/27 10:13:59;;;;;;;3.45;1.40;;;19.10;99.90;;;;;;5096658;28;20127;-93
2023/08/27 10:16:28;;;;;;;3.10;1.33;;;19.20;99.90;;;;;;5093950;28;20039;-93
2023/08/27 10:18:56;;;;;;;4.93;1.63;;;19.20;99.90;;;;;;5109283;28;20101;-90
2023/08/27 10:21:23;;;;;;;4.30;1.50;;;19.20;99.90;;;;;;5074731;28;20068;-89
2023/08/27 10:23:50;;;;;;;3.20;1.30;;;19.00;99.90;;;;;;5093723;28;20072;-87
2023/08/27 10:26:17;;;;;;;3.00;1.33;;;19.20;99.90;;;;;;5092398;28;20106;-87
2023/08/27 10:28:44;;;;;;;2.60;1.40;;;19.30;99.90;;;;;;5109955;28;20044;-88
2023/08/27 10:31:13;;;;;;;3.75;1.30;;;19.30;99.90;;;;;;5091678;28;20048;-90
2023/08/27 10:33:40;;;;;;;3.72;1.25;;;19.30;99.90;;;;;;5094278;28;20052;-89
2023/08/27 10:36:16;;;;;;;5.25;1.52;;;19.20;99.90;;;;;;5057273;28;20568;-89
2023/08/27 10:38:45;;;;;;;2.50;1.40;;;19.00;99.90;;;;;;5089899;28;20080;-89
2023/08/27 10:41:18;;;;;;;3.10;1.30;;;19.10;99.90;;;;;;5073311;28;20075;-88
2023/08/27 10:43:45;;;;;;;2.78;1.42;;;19.20;99.90;;;;;;5073759;28;20045;-88
2023/08/27 10:46:15;;;;;;;3.53;1.40;;;19.30;99.90;;;;;;5089701;28;20044;-91
2023/08/27 10:48:48;;;;;;;4.22;1.58;;;19.30;99.90;;;;;;5090139;28;20055;-87
2023/08/27 10:51:17;;;;;;;2.50;1.10;;;19.40;99.90;;;;;;5074020;28;20047;-89
2023/08/27 10:53:49;;;;;;;2.80;1.35;;;19.20;99.90;;;;;;5073204;28;20504;-91
2023/08/27 10:56:33;;;;;;;3.58;1.80;;;19.30;99.90;;;;;;5089471;28;20033;-89
2023/08/27 10:59:02;;;;;;;3.17;1.45;;;19.50;99.90;;;;;;5089308;28;20482;-89
2023/08/27 11:01:34;;;;;;;3.70;1.60;;;19.70;99.90;;;;;;5089579;28;20643;-88
2023/08/27 11:04:04;;;;;;;4.10;1.60;;;19.80;99.90;;;;;;5088893;28;20496;-90
2023/08/27 11:06:33;;;;;;;5.35;1.60;;;19.90;99.90;;;;;;5089571;28;20074;-89
2023/08/27 11:09:00;;;;;;;3.65;1.60;;;20.00;99.90;;;;;;5106011;28;20055;-88
2023/08/27 11:11:27;;;;;;;13.80;2.25;;;20.10;99.90;;;;;;5065714;28;20409;-89
2023/08/27 11:14:05;;;;;;;4.38;1.67;;;20.00;99.90;;;;;;5090133;28;20044;-89
2023/08/27 11:16:42;;;;;;;3.97;1.70;;;19.80;99.90;;;;;;5086110;28;20041;-88
2023/08/27 11:19:12;;;;;;;3.97;1.60;;;19.80;99.90;;;;;;5070687;28;20382;-89
2023/08/27 11:21:47;;;;;;;4.25;1.55;;;19.80;99.90;;;;;;5072446;28;20032;-88
2023/08/27 11:24:15;;;;;;;2.47;1.40;;;19.80;99.90;;;;;;5069884;28;20699;-89
2023/08/27 11:26:43;;;;;;;4.90;1.60;;;19.70;99.90;;;;;;5053553;28;20060;-89
2023/08/27 11:29:10;;;;;;;3.80;1.85;;;19.70;99.90;;;;;;5077882;28;20037;-89
2023/08/27 11:31:39;;;;;;;3.88;1.50;;;19.70;99.90;;;;;;5075259;28;20037;-89
2023/08/27 11:34:07;;;;;;;2.83;1.50;;;19.50;99.90;;;;;;5076630;28;20036;-88
2023/08/27 11:36:34;;;;;;;4.25;1.80;;;19.30;99.90;;;;;;5092963;28;20037;-89
2023/08/27 11:39:01;;;;;;;3.13;1.50;;;19.10;99.90;;;;;;5065568;28;20523;-88
2023/08/27 11:41:38;;;;;;;5.45;1.88;;;19.00;99.90;;;;;;5072902;28;20044;-89
2023/08/27 11:44:06;;;;;;;6.75;1.85;;;18.80;99.90;;;;;;5092153;28;20040;-88
2023/08/27 11:46:34;;;;;;;4.72;2.20;;;18.40;99.90;;;;;;5086191;28;20048;-87
2023/08/27 11:49:01;;;;;;;6.68;2.33;;;18.00;99.90;;;;;;5056065;28;20519;-86
2023/08/27 11:51:28;;;;;;;4.80;1.90;;;17.50;99.90;;;;;;5073236;28;20037;-86
2023/08/27 11:53:55;;;;;;;2.50;1.60;;;17.10;99.90;;;;;;5092202;28;20093;-86
2023/08/27 11:56:23;;;;;;;3.00;1.40;;;16.80;99.90;;;;;;5055635;28;20043;-87
2023/08/27 11:58:54;;;;;;;4.10;1.60;;;16.50;99.90;;;;;;5092276;28;20130;-87
2023/08/27 12:01:21;;;;;;;4.28;1.50;;;16.20;99.90;;;;;;5076013;28;20378;-87
2023/08/27 12:03:49;;;;;;;3.13;1.30;;;16.00;99.90;;;;;;5076091;28;20040;-87
2023/08/27 12:06:17;;;;;;;4.65;1.60;;;15.70;99.90;;;;;;5075558;28;20044;-87
2023/08/27 12:08:48;;;;;;;3.67;1.60;;;15.50;99.90;;;;;;5092563;28;20090;-86
2023/08/27 12:11:16;;;;;;;2.95;1.50;;;15.30;99.90;;;;;;5091975;28;20036;-87
2023/08/27 12:13:47;;;;;;;4.13;1.50;;;15.20;99.90;;;;;;5075672;28;20039;-87
2023/08/27 12:16:14;;;;;;;3.03;1.45;;;15.10;99.90;;;;;;5091656;28;20493;-86
2023/08/27 12:18:46;;;;;;;3.97;1.77;;;15.10;99.90;;;;;;5075644;28;20044;-87
2023/08/27 12:21:13;;;;;;;4.50;1.50;;;15.10;99.90;;;;;;5091955;28;20178;-88
2023/08/27 12:23:50;;;;;;;3.20;1.65;;;15.20;99.90;;;;;;5090810;28;20127;-88
2023/08/27 12:26:16;;;;;;;2.80;1.33;;;15.30;99.90;;;;;;5099924;28;20052;-89
2023/08/27 12:28:53;;;;;;;2.42;1.40;;;15.40;99.90;;;;;;5075694;28;20045;-89
2023/08/27 12:31:24;;;;;;;4.28;1.50;;;15.50;99.90;;;;;;5099341;28;20043;-89
2023/08/27 12:33:58;;;;;;;4.53;1.50;;;15.60;99.90;;;;;;5095603;28;20135;-89
2023/08/27 12:36:25;;;;;;;4.22;1.48;;;15.70;99.90;;;;;;5101058;28;20032;-87
2023/08/27 12:38:52;;;;;;;2.83;1.20;;;15.70;99.90;;;;;;5076065;28;20040;-87
2023/08/27 12:41:20;;;;;;;2.75;1.23;;;15.70;99.90;;;;;;5074490;28;20382;-87
2023/08/27 12:43:47;;;;;;;2.40;1.25;;;15.70;99.90;;;;;;5087830;28;20119;-87
2023/08/27 12:46:14;;;;;;;4.85;1.23;;;15.70;99.90;;;;;;5075885;28;20119;-87
2023/08/27 12:48:41;;;;;;;2.65;1.50;;;15.50;99.90;;;;;;5091440;28;20768;-88
2023/08/27 12:51:08;;;;;;;3.15;1.60;;;15.50;99.90;;;;;;5107308;28;20040;-87